Time;durP1;ratioP1;P1;durP2;ratioP2;P2;SDS_P1;SDS_P2;PMS_P1;PMS_P2;Temp;Humidity;BMP_temperature;BMP_pressure;BME280_temperature;BME280_humidity;BME280_pressure;Samples;Min_cycle;Max_cycle;Signal;HPM_P1;HPM_P2
2022/09/29 00:00:20;;;;;;;;;;;7.90;99.90;;;;;;8411567;28;19975;-78
2022/09/29 00:04:21;;;;;;;;;;;7.90;99.90;;;;;;8441714;28;19924;-78
2022/09/29 00:08:25;;;;;;;;;;;7.90;99.90;;;;;;8409845;28;19989;-78
2022/09/29 00:12:26;;;;;;;;;;;7.90;99.90;;;;;;8432558;28;19928;-79
2022/09/29 00:16:28;;;;;;;;;;;7.90;99.90;;;;;;8416592;28;19938;-78
2022/09/29 00:20:30;;;;;;;;;;;7.90;99.90;;;;;;8428995;28;19964;-78
2022/09/29 00:24:33;;;;;;;;;;;7.80;99.90;;;;;;8428574;28;19928;-78
2022/09/29 00:28:36;;;;;;;;;;;7.80;99.90;;;;;;8430853;28;20355;-78
2022/09/29 00:32:37;;;;;;;;;;;7.80;99.90;;;;;;8416498;28;19928;-79
2022/09/29 00:36:40;;;;;;;;;;;7.70;99.90;;;;;;8438905;28;20389;-78
2022/09/29 00:40:41;;;;;;;;;;;7.70;99.90;;;;;;8445550;27;19999;-78
2022/09/29 00:44:53;;;;;;;;;;;7.70;99.90;;;;;;8439513;28;19924;-78
2022/09/29 00:48:56;;;;;;;;;;;7.70;99.90;;;;;;8426837;28;19939;-78
2022/09/29 00:53:00;;;;;;;;;;;7.60;99.90;;;;;;8445532;28;19959;-79
2022/09/29 00:57:03;;;;;;;;;;;7.50;99.90;;;;;;8438907;27;20527;-78
2022/09/29 01:01:05;;;;;;;;;;;7.50;99.90;;;;;;8415562;28;19930;-78
2022/09/29 01:05:10;;;;;;;;;;;7.50;99.90;;;;;;8432608;28;19924;-79
2022/09/29 01:09:17;;;;;;;;;;;7.50;99.90;;;;;;8433299;28;20007;-78
2022/09/29 01:13:19;;;;;;;;;;;7.40;99.90;;;;;;8444684;28;19928;-79
2022/09/29 01:17:21;;;;;;;;;;;7.40;99.90;;;;;;8404126;28;19931;-78
2022/09/29 01:21:51;;;;;;;;;;;7.40;99.90;;;;;;8426588;28;19943;-78
2022/09/29 01:26:08;;;;;;;;;;;7.30;99.90;;;;;;8364695;28;20385;-78
2022/09/29 01:30:21;;;;;;;5.25;2.70;;;7.30;99.90;;;;;;8409344;28;19928;-78
2022/09/29 01:34:39;;;;;;;;;;;7.30;99.90;;;;;;8431772;28;20137;-78
2022/09/29 01:38:47;;;;;;;5.30;2.80;;;7.30;99.90;;;;;;8413017;28;19923;-78
2022/09/29 01:42:56;;;;;;;;;;;7.30;99.90;;;;;;8443251;28;20448;-78
2022/09/29 01:47:00;;;;;;;;;;;7.20;99.90;;;;;;8424732;28;19926;-78
2022/09/29 01:51:05;;;;;;;;;;;7.20;99.90;;;;;;8430642;28;19930;-78
2022/09/29 01:55:09;;;;;;;;;;;7.20;99.90;;;;;;8426166;28;20382;-78
2022/09/29 01:59:14;;;;;;;;;;;7.20;99.90;;;;;;8433744;28;20019;-78
2022/09/29 02:03:35;;;;;;;;;;;7.20;99.90;;;;;;8426345;28;20374;-78
2022/09/29 02:07:38;;;;;;;;;;;7.20;99.90;;;;;;8423391;28;20035;-79
2022/09/29 02:11:40;;;;;;;;;;;7.20;99.90;;;;;;8416506;28;20294;-78
2022/09/29 02:15:45;;;;;;;;;;;7.10;99.90;;;;;;8440871;28;19919;-78
2022/09/29 02:19:48;;;;;;;;;;;7.10;99.90;;;;;;8432067;28;19920;-78
2022/09/29 02:23:51;;;;;;;;;;;7.10;99.90;;;;;;8393757;28;20319;-78
2022/09/29 02:27:52;;;;;;;5.65;2.95;;;7.10;99.90;;;;;;8411462;28;19930;-78
2022/09/29 02:31:56;;;;;;;7.28;2.65;;;7.10;99.90;;;;;;8409236;28;20050;-78
2022/09/29 02:36:03;;;;;;;4.45;2.50;;;7.20;99.90;;;;;;8436974;28;20058;-77
2022/09/29 02:40:24;;;;;;;5.43;2.78;;;7.10;99.90;;;;;;8417524;28;20051;-78
2022/09/29 02:44:47;;;;;;;5.13;2.78;;;7.10;99.90;;;;;;8427561;28;20047;-78
2022/09/29 02:49:04;;;;;;;6.70;3.25;;;7.10;99.90;;;;;;8429083;28;20055;-78
2022/09/29 02:53:25;;;;;;;4.63;2.65;;;7.00;99.90;;;;;;8426223;28;20135;-78
2022/09/29 02:57:42;;;;;;;5.30;2.72;;;7.00;99.90;;;;;;8441412;28;20042;-78
2022/09/29 03:01:49;;;;;;;6.18;2.72;;;7.00;99.90;;;;;;8431242;28;20055;-78
2022/09/29 03:05:52;;;;;;;8.00;3.90;;;7.00;99.90;;;;;;8437914;28;20048;-78
2022/09/29 03:09:54;;;;;;;5.88;2.95;;;7.10;99.90;;;;;;8442028;28;20044;-78
2022/09/29 03:13:55;;;;;;;5.05;2.67;;;7.00;99.90;;;;;;8424522;28;20070;-78
2022/09/29 03:17:57;;;;;;;4.70;2.22;;;7.00;99.90;;;;;;8423554;28;20048;-78
2022/09/29 03:21:59;;;;;;;6.07;3.45;;;7.00;99.90;;;;;;8404995;28;20135;-78
2022/09/29 03:26:00;;;;;;;5.28;2.85;;;7.00;99.90;;;;;;8418800;28;20064;-78
2022/09/29 03:30:03;;;;;;;13.60;3.65;;;7.00;99.90;;;;;;8395684;28;20051;-78
2022/09/29 03:34:05;;;;;;;5.40;2.80;;;7.00;99.90;;;;;;8433626;28;20131;-78
2022/09/29 03:38:07;;;;;;;5.30;3.30;;;7.10;99.90;;;;;;8429469;28;20055;-78
2022/09/29 03:42:09;;;;;;;4.82;2.95;;;7.10;99.90;;;;;;8418002;28;20052;-78
2022/09/29 03:46:10;;;;;;;5.82;3.00;;;7.10;99.90;;;;;;8411274;28;20052;-78
2022/09/29 03:50:12;;;;;;;10.82;2.80;;;7.10;99.90;;;;;;8449819;28;20055;-78
2022/09/29 03:54:14;;;;;;;8.80;3.00;;;7.10;99.90;;;;;;8414476;28;20047;-78
2022/09/29 03:58:16;;;;;;;5.70;3.10;;;7.10;99.90;;;;;;8436320;28;20397;-78
2022/09/29 04:02:19;;;;;;;4.75;3.03;;;7.10;99.90;;;;;;8423373;28;20048;-78
2022/09/29 04:06:21;;;;;;;4.65;2.60;;;7.10;99.90;;;;;;8428447;28;20071;-77
2022/09/29 04:10:23;;;;;;;4.60;2.60;;;7.10;99.90;;;;;;8432683;28;20135;-78
2022/09/29 04:14:24;;;;;;;4.32;2.47;;;7.10;99.90;;;;;;8427754;28;20201;-77
2022/09/29 04:18:27;;;;;;;4.75;2.60;;;7.00;99.90;;;;;;8430335;28;20047;-78
2022/09/29 04:22:29;;;;;;;4.60;2.80;;;7.00;99.90;;;;;;8422181;28;20046;-78
2022/09/29 04:26:30;;;;;;;4.38;2.80;;;7.00;99.90;;;;;;8437586;28;20044;-78
2022/09/29 04:30:32;;;;;;;5.03;2.92;;;7.00;99.90;;;;;;8429746;28;20050;-78
2022/09/29 04:34:34;;;;;;;6.85;2.88;;;7.00;99.90;;;;;;8430114;28;20044;-78
2022/09/29 04:38:35;;;;;;;7.57;3.20;;;7.00;99.90;;;;;;8430986;28;20054;-78
2022/09/29 04:42:37;;;;;;;5.22;3.20;;;7.00;99.90;;;;;;8415178;28;20043;-78
2022/09/29 04:46:39;;;;;;;5.00;3.03;;;7.00;99.90;;;;;;8439337;28;20505;-78
2022/09/29 04:50:41;;;;;;;5.20;2.75;;;7.00;99.90;;;;;;8432219;28;20076;-78
2022/09/29 04:54:43;;;;;;;5.35;3.33;;;7.00;99.90;;;;;;8432724;28;20047;-78
2022/09/29 04:58:45;;;;;;;5.75;3.40;;;7.00;99.90;;;;;;8438134;28;20477;-78
2022/09/29 05:02:46;;;;;;;7.68;4.15;;;7.00;99.90;;;;;;8424213;28;20070;-78
2022/09/29 05:17:35;;;;;;;5.65;3.40;;;6.90;99.90;;;;;;8415334;28;20131;-78
2022/09/29 05:21:36;;;;;;;5.18;3.20;;;6.90;99.90;;;;;;8418266;28;20055;-77
2022/09/29 05:25:39;;;;;;;7.30;3.10;;;6.90;99.90;;;;;;8419948;28;20055;-78
2022/09/29 05:29:41;;;;;;;5.78;3.30;;;6.80;99.90;;;;;;8437598;28;20044;-78
2022/09/29 05:33:42;;;;;;;5.15;3.13;;;6.80;99.90;;;;;;8419407;28;20049;-78
2022/09/29 05:37:44;;;;;;;5.20;3.30;;;6.80;99.90;;;;;;8423120;28;20442;-78
2022/09/29 05:41:47;;;;;;;7.68;3.75;;;6.70;99.90;;;;;;8409729;28;20416;-78
2022/09/29 05:45:49;;;;;;;6.10;3.20;;;6.70;99.90;;;;;;8444720;28;20048;-78
2022/09/29 05:49:50;;;;;;;7.75;3.80;;;6.70;99.90;;;;;;8423532;28;20051;-78
2022/09/29 05:53:53;;;;;;;13.13;4.20;;;6.70;99.90;;;;;;8416410;28;20483;-78
2022/09/29 05:57:54;;;;;;;7.07;4.22;;;6.70;99.90;;;;;;8428497;28;20123;-77
2022/09/29 06:01:56;;;;;;;8.88;4.35;;;6.70;99.90;;;;;;8430773;28;20052;-77
2022/09/29 06:06:02;;;;;;;9.07;3.90;;;6.70;99.90;;;;;;8424434;28;20051;-78
2022/09/29 06:10:05;;;;;;;6.70;3.40;;;6.70;99.90;;;;;;8437757;28;20483;-78
2022/09/29 06:14:06;;;;;;;6.88;3.67;;;6.70;99.90;;;;;;8425777;28;20058;-78
2022/09/29 06:18:08;;;;;;;7.85;4.05;;;6.70;99.90;;;;;;8416410;28;20055;-78
2022/09/29 06:22:10;;;;;;;5.75;4.00;;;6.70;99.90;;;;;;8441048;28;20138;-78
2022/09/29 06:26:14;;;;;;;6.32;4.00;;;6.70;99.90;;;;;;8414631;28;20048;-78
2022/09/29 06:30:23;;;;;;;6.55;4.10;;;6.70;99.90;;;;;;8425723;28;20044;-78
2022/09/29 06:34:25;;;;;;;6.20;4.20;;;6.80;99.90;;;;;;8422693;28;20478;-78
2022/09/29 06:38:27;;;;;;;10.85;4.55;;;6.80;99.90;;;;;;8431722;28;20050;-78
2022/09/29 06:42:28;;;;;;;6.72;3.97;;;6.80;99.90;;;;;;8447391;28;20058;-78
2022/09/29 06:46:30;;;;;;;6.75;4.43;;;6.90;99.90;;;;;;8424327;28;20110;-77
2022/09/29 06:50:33;;;;;;;5.82;3.92;;;6.90;99.90;;;;;;8435662;28;20058;-78
2022/09/29 06:54:35;;;;;;;8.25;4.90;;;7.00;99.90;;;;;;8426928;28;20041;-78
2022/09/29 06:58:37;;;;;;;12.43;5.40;;;7.00;99.90;;;;;;8440067;28;20109;-78
2022/09/29 07:02:38;;;;;;;29.08;5.13;;;7.00;99.90;;;;;;8422966;28;20061;-77
2022/09/29 07:06:40;;;;;;;7.68;5.07;;;7.00;99.90;;;;;;8407722;28;20055;-78
2022/09/29 07:10:42;;;;;;;7.13;5.00;;;7.10;99.90;;;;;;8458327;28;20142;-78
2022/09/29 07:14:43;;;;;;;8.00;5.20;;;7.10;99.90;;;;;;8427702;28;20043;-78
2022/09/29 07:18:45;;;;;;;9.15;5.45;;;7.20;99.90;;;;;;8423238;28;20135;-77
2022/09/29 07:22:47;;;;;;;9.05;5.45;;;7.20;99.90;;;;;;8447320;28;20059;-77
2022/09/29 07:26:49;;;;;;;10.95;5.50;;;7.30;99.90;;;;;;8430348;28;20391;-77
2022/09/29 07:31:02;;;;;;;19.45;6.22;;;7.30;99.90;;;;;;8448657;28;20250;-78
2022/09/29 07:35:15;;;;;;;42.63;8.30;;;7.30;99.90;;;;;;8424351;28;20055;-77
2022/09/29 07:39:20;;;;;;;15.80;5.85;;;7.40;99.90;;;;;;8455934;28;20134;-77
2022/09/29 07:43:21;;;;;;;10.40;5.93;;;7.50;99.90;;;;;;8454390;28;20055;-78
2022/09/29 07:47:23;;;;;;;13.45;6.95;;;7.50;99.90;;;;;;8426020;28;20054;-77
2022/09/29 07:51:25;;;;;;;36.13;9.45;;;7.60;99.90;;;;;;8436451;28;20131;-77
2022/09/29 07:55:27;;;;;;;15.25;7.97;;;7.70;99.90;;;;;;8428054;28;20474;-78
2022/09/29 07:59:29;;;;;;;13.25;8.32;;;7.80;99.90;;;;;;8427508;28;20388;-78
2022/09/29 08:03:32;;;;;;;17.92;9.73;;;7.80;99.90;;;;;;8429289;28;20052;-78
2022/09/29 08:07:34;;;;;;;19.40;10.65;;;7.90;99.90;;;;;;8449014;28;20051;-77
2022/09/29 08:11:41;;;;;;;18.70;10.50;;;8.00;99.90;;;;;;8437602;28;20081;-78
2022/09/29 08:15:43;;;;;;;16.17;10.30;;;8.00;99.90;;;;;;8427716;28;20131;-77
2022/09/29 08:19:44;;;;;;;18.73;10.50;;;8.10;99.90;;;;;;8446217;28;20088;-78
2022/09/29 08:23:46;;;;;;;23.95;12.15;;;8.20;99.90;;;;;;8441839;28;20058;-78
2022/09/29 08:27:48;;;;;;;21.13;11.95;;;8.30;99.90;;;;;;8408254;28;20476;-78
2022/09/29 08:31:56;;;;;;;21.95;11.80;;;8.30;99.90;;;;;;8414054;28;20072;-78
2022/09/29 08:35:59;;;;;;;22.85;12.35;;;8.40;99.90;;;;;;8392262;28;20051;-78
2022/09/29 08:40:00;;;;;;;30.65;14.82;;;8.50;99.90;;;;;;8445264;28;20094;-78
2022/09/29 08:44:35;;;;;;;25.02;13.85;;;8.60;99.90;;;;;;8443094;28;20082;-78
2022/09/29 08:48:43;;;;;;;26.27;14.13;;;8.60;99.90;;;;;;8422946;28;20048;-78
2022/09/29 08:53:11;;;;;;;26.95;13.88;;;8.70;99.90;;;;;;8446577;28;20127;-78
2022/09/29 08:57:29;;;;;;;29.70;15.52;;;8.80;99.90;;;;;;8425384;28;20065;-78
2022/09/29 09:01:55;;;;;;;30.65;15.75;;;8.90;99.90;;;;;;8404413;28;20048;-77
2022/09/29 09:06:18;;;;;;;28.13;15.48;;;9.00;99.90;;;;;;8415294;28;20118;-78
2022/09/29 09:10:23;;;;;;;27.15;14.63;;;9.00;99.90;;;;;;8420878;28;20043;-79
2022/09/29 09:14:30;;;;;;;31.80;17.00;;;9.10;99.90;;;;;;8433207;28;20039;-78
2022/09/29 09:18:44;;;;;;;33.22;17.33;;;9.20;99.90;;;;;;8408187;28;19927;-78
2022/09/29 09:22:57;;;;;;;30.38;16.45;;;9.30;99.90;;;;;;8410343;28;20097;-78
2022/09/29 09:26:58;;;;;;;29.30;15.88;;;9.40;99.90;;;;;;8422390;28;20142;-78
2022/09/29 09:31:08;;;;;;;32.10;16.90;;;9.50;99.90;;;;;;8451263;28;20124;-79
2022/09/29 09:35:33;;;;;;;;;;;9.60;99.90;;;;;;8424256;28;20162;-78
2022/09/29 09:39:50;;;;;;;;;;;9.60;99.90;;;;;;8392679;28;20424;-78
2022/09/29 09:43:56;;;;;;;;;;;9.70;99.90;;;;;;8436863;27;20332;-79
2022/09/29 09:48:05;;;;;;;;;;;9.90;99.90;;;;;;8426025;28;19934;-78
2022/09/29 09:52:12;;;;;;;;;;;10.00;99.90;;;;;;8416546;28;19923;-78
2022/09/29 09:56:23;;;;;;;;;;;10.20;99.90;;;;;;8419237;28;20018;-78
2022/09/29 10:00:31;;;;;;;;;;;10.50;99.90;;;;;;8438125;28;19927;-78
2022/09/29 10:04:33;;;;;;;;;;;10.60;99.90;;;;;;8440176;28;20318;-78
2022/09/29 10:08:38;;;;;;;;;;;10.80;99.90;;;;;;8476425;27;20375;-79
2022/09/29 10:12:40;;;;;;;;;;;10.90;99.90;;;;;;8441668;28;19924;-78
2022/09/29 10:16:44;;;;;;;;;;;11.10;99.90;;;;;;8429123;28;20352;-79
2022/09/29 10:20:46;;;;;;;;;;;11.30;99.90;;;;;;8395329;28;19924;-79
2022/09/29 10:24:50;;;;;;;;;;;11.60;99.90;;;;;;8399552;28;20340;-78
2022/09/29 10:29:15;;;;;;;;;;;11.90;99.90;;;;;;8408689;28;19928;-79
2022/09/29 10:33:17;;;;;;;;;;;12.10;99.90;;;;;;8404065;28;20446;-78
2022/09/29 10:37:19;;;;;;;;;;;12.40;99.90;;;;;;8407613;28;19950;-78
2022/09/29 10:41:21;;;;;;;;;;;12.70;99.90;;;;;;8409974;28;24010;-79
2022/09/29 10:45:24;;;;;;;25.10;15.57;;;12.90;99.90;;;;;;8392678;28;19933;-78
2022/09/29 10:49:28;;;;;;;28.15;17.20;;;13.20;99.90;;;;;;8392296;28;20047;-79
2022/09/29 10:53:34;;;;;;;19.08;12.80;;;13.60;99.90;;;;;;8400323;28;20488;-78
2022/09/29 10:57:38;;;;;;;21.23;12.15;;;14.10;99.90;;;;;;8409583;28;21168;-78
2022/09/29 11:01:49;;;;;;;13.52;8.45;;;14.30;99.90;;;;;;8409149;28;20058;-78
2022/09/29 11:05:54;;;;;;;16.45;9.77;;;14.50;99.90;;;;;;8411398;28;20136;-78
2022/09/29 11:09:57;;;;;;;18.08;10.73;;;14.60;99.90;;;;;;8409325;28;20062;-77
2022/09/29 11:13:59;;;;;;;13.10;8.05;;;14.90;99.90;;;;;;8407510;28;20052;-78
2022/09/29 11:18:18;;;;;;;13.43;9.43;;;15.00;99.90;;;;;;8409324;28;20052;-78
2022/09/29 11:22:35;;;;;;;11.80;6.75;;;15.00;99.90;;;;;;8406928;28;20048;-78
2022/09/29 11:26:46;;;;;;;12.45;7.82;;;14.80;99.90;;;;;;8407008;28;20136;-78
2022/09/29 11:31:15;;;;;;;9.23;5.63;;;14.90;99.90;;;;;;8393488;28;20044;-78
2022/09/29 11:35:47;;;;;;;14.90;8.48;;;14.90;99.90;;;;;;8407272;28;20043;-77
2022/09/29 11:39:56;;;;;;;;;;;14.90;99.90;;;;;;8408463;28;20149;-77
2022/09/29 11:44:08;;;;;;;;;;;14.70;99.90;;;;;;8391864;28;19950;-79
2022/09/29 11:48:28;;;;;;;;;;;14.70;99.90;;;;;;8392893;28;19930;-78
2022/09/29 11:52:49;;;;;;;;;;;14.80;99.90;;;;;;8406190;28;19960;-78
2022/09/29 11:56:51;;;;;;;;;;;14.80;99.90;;;;;;8396594;28;19924;-78
2022/09/29 12:00:52;;;;;;;;;;;14.90;99.90;;;;;;8414638;28;20027;-77
2022/09/29 12:05:06;;;;;;;;;;;15.00;99.90;;;;;;8409577;28;20358;-77
2022/09/29 12:09:27;;;;;;;;;;;15.10;99.90;;;;;;8401040;28;20359;-78
2022/09/29 12:13:29;;;;;;;;;;;15.20;99.90;;;;;;8397940;28;20007;-78
2022/09/29 12:17:34;;;;;;;;;;;15.20;99.90;;;;;;8397956;28;19928;-78
2022/09/29 12:21:39;;;;;;;;;;;15.20;99.90;;;;;;8404507;28;19924;-78
2022/09/29 12:25:52;;;;;;;;;;;15.20;99.90;;;;;;8393291;28;21686;-77
2022/09/29 12:30:00;;;;;;;;;;;15.30;99.90;;;;;;8387601;28;19934;-78
2022/09/29 12:34:10;;;;;;;;;;;15.40;99.90;;;;;;8406040;28;23968;-78
2022/09/29 12:38:18;;;;;;;;;;;15.40;99.90;;;;;;8398166;28;20354;-77
2022/09/29 12:42:20;;;;;;;;;;;15.30;99.90;;;;;;8405441;28;19920;-78
2022/09/29 12:46:25;;;;;;;;;;;15.20;99.90;;;;;;8406287;28;19926;-78
2022/09/29 12:50:28;;;;;;;;;;;15.00;99.90;;;;;;8407894;27;19924;-78
2022/09/29 12:54:43;;;;;;;;;;;14.90;99.90;;;;;;8401228;28;19934;-77
2022/09/29 12:59:02;;;;;;;;;;;14.80;99.90;;;;;;8396049;28;19924;-78
2022/09/29 13:03:18;;;;;;;;;;;14.60;99.90;;;;;;8401244;28;19935;-77
2022/09/29 13:07:38;;;;;;;;;;;14.50;99.90;;;;;;8396108;28;20236;-78
2022/09/29 13:11:58;;;;;;;;;;;14.50;99.90;;;;;;8401308;28;19928;-78
2022/09/29 13:16:12;;;;;;;;;;;14.40;99.90;;;;;;8388862;28;19946;-77
2022/09/29 13:20:19;;;;;;;;;;;14.40;99.90;;;;;;8401491;28;20367;-78
2022/09/29 13:24:31;;;;;;;;;;;14.40;99.90;;;;;;8383153;28;19973;-78
2022/09/29 13:28:36;;;;;;;;;;;14.40;99.90;;;;;;8393951;28;19934;-77
2022/09/29 13:32:39;;;;;;;;;;;14.50;99.90;;;;;;8396262;28;19924;-78
2022/09/29 13:36:44;;;;;;;;;;;14.70;99.90;;;;;;8407094;27;19920;-78
2022/09/29 13:41:12;;;;;;;;;;;14.70;99.90;;;;;;8396746;28;19923;-78
2022/09/29 13:45:19;;;;;;;;;;;14.80;99.90;;;;;;8394237;28;19934;-78
2022/09/29 13:49:21;;;;;;;;;;;14.90;99.90;;;;;;8395833;28;20286;-78
2022/09/29 13:53:26;;;;;;;;;;;15.00;99.90;;;;;;8390958;28;19920;-78
2022/09/29 13:57:28;;;;;;;;;;;15.00;99.90;;;;;;8394251;28;20455;-79
2022/09/29 14:01:32;;;;;;;;;;;15.10;99.90;;;;;;8412528;27;19920;-78
2022/09/29 14:05:35;;;;;;;;;;;15.20;99.90;;;;;;8392313;28;19928;-78
2022/09/29 14:09:39;;;;;;;;;;;15.20;99.90;;;;;;8392571;28;19928;-78
2022/09/29 14:13:47;;;;;;;;;;;15.10;99.90;;;;;;8400801;28;19927;-78
2022/09/29 14:17:58;;;;;;;;;;;15.00;99.90;;;;;;8393458;28;19924;-78
2022/09/29 14:22:01;;;;;;;;;;;14.90;99.90;;;;;;8393871;28;19927;-77
2022/09/29 14:26:03;;;;;;;;;;;14.80;99.90;;;;;;8400772;28;19982;-78
2022/09/29 14:30:07;;;;;;;;;;;14.70;99.90;;;;;;8394688;28;19935;-78
2022/09/29 14:34:10;;;;;;;;;;;14.60;99.90;;;;;;8397510;28;20371;-78
2022/09/29 14:38:14;;;;;;;;;;;14.70;99.90;;;;;;8391900;28;20224;-77
2022/09/29 14:42:16;;;;;;;;;;;14.80;99.90;;;;;;8395993;28;19923;-78
2022/09/29 14:55:33;;;;;;;;;;;15.00;99.90;;;;;;8383878;28;19928;-78
2022/09/29 14:59:43;;;;;;;;;;;15.00;99.90;;;;;;8386670;28;20325;-78
2022/09/29 15:03:46;;;;;;;;;;;15.00;99.90;;;;;;8374300;28;19924;-78
2022/09/29 15:07:48;;;;;;;;;;;15.00;99.90;;;;;;8385157;28;19924;-78
2022/09/29 15:11:51;;;;;;;;;;;15.10;99.90;;;;;;8402828;28;19920;-78
2022/09/29 15:16:02;;;;;;;;;;;15.10;99.90;;;;;;8390053;28;19931;-78
2022/09/29 15:20:27;;;;;;;;;;;15.10;99.90;;;;;;8388852;28;19973;-78
2022/09/29 15:24:54;;;;;;;;;;;15.10;99.90;;;;;;8392676;28;20024;-78
2022/09/29 15:28:57;;;;;;;;;;;15.10;99.90;;;;;;8381629;28;19920;-78
2022/09/29 15:33:21;;;;;;;;;;;15.10;99.90;;;;;;8366778;28;19935;-78
2022/09/29 15:37:23;;;;;;;;;;;15.20;99.90;;;;;;8389826;28;19935;-78
2022/09/29 15:41:24;;;;;;;;;;;15.20;99.90;;;;;;8398941;28;19934;-78
2022/09/29 15:45:30;;;;;;;;;;;15.30;99.90;;;;;;8398270;28;20042;-78
2022/09/29 15:49:32;;;;;;;;;;;15.40;99.90;;;;;;8404995;27;19928;-78
2022/09/29 15:53:33;;;;;;;;;;;15.40;99.90;;;;;;8397701;28;21895;-78
2022/09/29 15:57:57;;;;;;;;;;;15.40;99.90;;;;;;8405668;27;19923;-78
2022/09/29 16:02:04;;;;;;;;;;;15.50;99.90;;;;;;8387621;28;19946;-78
2022/09/29 16:06:15;;;;;;;;;;;15.50;99.90;;;;;;8391462;28;20023;-78
2022/09/29 16:10:18;;;;;;;;;;;15.50;99.90;;;;;;8377913;28;19930;-78
2022/09/29 16:14:26;;;;;;;;;;;15.50;99.90;;;;;;8388228;28;19920;-78
2022/09/29 16:18:31;;;;;;;;;;;15.50;99.90;;;;;;8379033;28;19931;-79
2022/09/29 16:22:33;;;;;;;;;;;15.50;99.90;;;;;;8393813;28;19931;-77
2022/09/29 16:26:36;;;;;;;;;;;15.50;99.90;;;;;;8385313;28;19928;-78
2022/09/29 16:30:37;;;;;;;;;;;15.50;99.90;;;;;;8394176;28;19920;-78
2022/09/29 16:34:39;;;;;;;;;;;15.50;99.90;;;;;;8375529;28;19931;-78
2022/09/29 16:38:44;;;;;;;;;;;15.40;99.90;;;;;;8387983;28;19924;-78
2022/09/29 16:42:50;;;;;;;;;;;15.20;99.90;;;;;;8394217;28;19972;-78
2022/09/29 16:46:55;;;;;;;;;;;15.00;99.90;;;;;;8384634;28;20398;-78
2022/09/29 16:50:57;;;;;;;;;;;14.90;99.90;;;;;;8388373;28;19928;-78
2022/09/29 16:55:14;;;;;;;;;;;14.80;99.90;;;;;;8396971;28;19924;-78
2022/09/29 16:59:16;;;;;;;;;;;14.60;99.90;;;;;;8402825;28;20034;-78
2022/09/29 17:03:18;;;;;;;;;;;14.40;99.90;;;;;;8388356;28;19920;-78
2022/09/29 17:07:21;;;;;;;;;;;14.30;99.90;;;;;;8404795;28;19919;-78
2022/09/29 17:11:23;;;;;;;;;;;14.20;99.90;;;;;;8405801;28;19924;-78
2022/09/29 17:15:25;;;;;;;;;;;14.00;99.90;;;;;;8402603;28;19924;-78
2022/09/29 17:19:26;;;;;;;;;;;13.90;99.90;;;;;;8413219;27;19924;-78
2022/09/29 17:23:28;;;;;;;;;;;13.80;99.90;;;;;;8405909;28;20288;-78
2022/09/29 17:31:51;;;;;;;;;;;13.60;99.90;;;;;;8389108;28;20371;-78
2022/09/29 17:35:52;;;;;;;;;;;13.40;99.90;;;;;;8367126;28;21521;-78
2022/09/29 17:39:56;;;;;;;;;;;13.40;99.90;;;;;;8395169;28;19928;-79
2022/09/29 17:43:57;;;;;;;;;;;13.20;99.90;;;;;;8399299;28;19926;-78
2022/09/29 17:48:00;;;;;;;;;;;13.10;99.90;;;;;;8394924;28;20050;-79
2022/09/29 17:52:02;;;;;;;;;;;13.10;99.90;;;;;;8391268;28;19920;-79
2022/09/29 17:56:04;;;;;;;;;;;13.00;99.90;;;;;;8397023;28;19924;-79
2022/09/29 18:00:13;;;;;;;;;;;12.90;99.90;;;;;;8396014;28;20349;-79
2022/09/29 18:04:14;;;;;;;;;;;12.80;99.90;;;;;;8393835;28;19928;-78
2022/09/29 18:08:17;;;;;;;;;;;12.70;99.90;;;;;;8396163;28;19931;-79
2022/09/29 18:12:18;;;;;;;;;;;12.60;99.90;;;;;;8395826;28;20022;-79
2022/09/29 18:16:22;;;;;;;;;;;12.60;99.90;;;;;;8395696;28;19928;-78
2022/09/29 18:20:24;;;;;;;;;;;12.50;99.90;;;;;;8389704;28;19924;-79
2022/09/29 18:24:26;;;;;;;;;;;12.40;99.90;;;;;;8397424;28;19930;-78
2022/09/29 18:28:27;;;;;;;;;;;12.40;99.90;;;;;;8391329;28;19920;-79
2022/09/29 18:32:29;;;;;;;;;;;12.30;99.90;;;;;;8397032;28;19934;-79
2022/09/29 18:36:31;;;;;;;;;;;12.30;99.90;;;;;;8406374;28;20295;-79
2022/09/29 18:40:33;;;;;;;;;;;12.20;99.90;;;;;;8396090;28;20360;-79
2022/09/29 18:44:36;;;;;;;;;;;12.20;99.90;;;;;;8392033;28;20387;-79
2022/09/29 18:48:37;;;;;;;;;;;12.10;99.90;;;;;;8392304;28;19920;-78
2022/09/29 18:52:39;;;;;;;;;;;12.10;99.90;;;;;;8391200;28;19920;-79
2022/09/29 18:56:41;;;;;;;;;;;12.00;99.90;;;;;;8401218;28;19949;-78
2022/09/29 19:00:44;;;;;;;;;;;11.90;99.90;;;;;;8394484;28;19924;-79
2022/09/29 19:04:46;;;;;;;;;;;11.90;99.90;;;;;;8394695;28;19934;-78
2022/09/29 19:08:54;;;;;;;;;;;11.80;99.90;;;;;;8401912;28;19928;-79
2022/09/29 19:12:57;;;;;;;;;;;11.80;99.90;;;;;;8392719;28;19975;-79
2022/09/29 19:16:59;;;;;;;;;;;11.70;99.90;;;;;;8395021;28;19931;-79
2022/09/29 19:21:01;;;;;;;;;;;11.60;99.90;;;;;;8396062;28;20282;-79
2022/09/29 19:25:02;;;;;;;;;;;11.60;99.90;;;;;;8402397;28;19928;-78
2022/09/29 19:29:04;;;;;;;;;;;11.50;99.90;;;;;;8396546;28;19928;-79
2022/09/29 19:33:07;;;;;;;;;;;11.50;99.90;;;;;;8404226;28;19928;-79
2022/09/29 19:37:08;;;;;;;;;;;11.40;99.90;;;;;;8400187;28;19920;-79
2022/09/29 19:41:18;;;;;;;;;;;11.40;99.90;;;;;;8395977;28;19938;-79
2022/09/29 19:45:20;;;;;;;;;;;11.30;99.90;;;;;;8402274;28;20352;-79
2022/09/29 19:49:22;;;;;;;;;;;11.20;99.90;;;;;;8394967;28;20376;-79
2022/09/29 19:53:23;;;;;;;;;;;11.20;99.90;;;;;;8401173;28;19932;-79
2022/09/29 19:57:25;;;;;;;;;;;11.20;99.90;;;;;;8392803;28;19931;-79
2022/09/29 20:01:27;;;;;;;;;;;11.10;99.90;;;;;;8383814;28;19924;-78
2022/09/29 20:05:29;;;;;;;;;;;11.10;99.90;;;;;;8390258;28;19927;-79
2022/09/29 20:09:31;;;;;;;;;;;11.00;99.90;;;;;;8400952;28;19940;-79
2022/09/29 20:13:32;;;;;;;;;;;11.00;99.90;;;;;;8393716;28;19947;-79
2022/09/29 20:17:35;;;;;;;;;;;10.90;99.90;;;;;;8408060;28;19924;-79
2022/09/29 20:21:39;;;;;;;;;;;10.80;99.90;;;;;;8394715;28;19955;-78
2022/09/29 20:25:40;;;;;;;;;;;10.80;99.90;;;;;;8402936;28;19955;-79
2022/09/29 20:29:42;;;;;;;;;;;10.70;99.90;;;;;;8396268;28;19920;-79
2022/09/29 20:33:47;;;;;;;;;;;10.70;99.90;;;;;;8397388;28;19927;-79
2022/09/29 20:37:49;;;;;;;;;;;10.70;99.90;;;;;;8400359;28;19920;-78
2022/09/29 20:41:53;;;;;;;;;;;10.60;99.90;;;;;;8379815;28;19928;-79
2022/09/29 20:46:01;;;;;;;;;;;10.60;99.90;;;;;;8397200;28;19963;-78
2022/09/29 20:50:03;;;;;;;;;;;10.50;99.90;;;;;;8391752;28;20413;-79
2022/09/29 20:54:05;;;;;;;;;;;10.50;99.90;;;;;;8412344;28;19926;-79
2022/09/29 20:58:07;;;;;;;;;;;10.40;99.90;;;;;;8391369;28;20022;-79
2022/09/29 21:02:10;;;;;;;;;;;10.40;99.90;;;;;;8408028;28;19920;-79
2022/09/29 21:06:12;;;;;;;;;;;10.30;99.90;;;;;;8415440;28;19924;-79
2022/09/29 21:10:14;;;;;;;;;;;10.30;99.90;;;;;;8438617;27;21536;-80
2022/09/29 21:14:17;;;;;;;;;;;10.20;99.90;;;;;;8427083;28;19919;-79
2022/09/29 21:18:19;;;;;;;;;;;10.20;99.90;;;;;;8413383;28;20019;-79
2022/09/29 21:22:20;;;;;;;;;;;10.10;99.90;;;;;;8412253;28;20014;-79
2022/09/29 21:26:28;;;;;;;;;;;10.10;99.90;;;;;;8434758;28;20027;-78
2022/09/29 21:30:30;;;;;;;;;;;10.10;99.90;;;;;;8410842;28;19950;-79
2022/09/29 21:34:31;;;;;;;;;;;10.00;99.90;;;;;;8436983;28;19925;-79
2022/09/29 21:38:35;;;;;;;;;;;10.00;99.90;;;;;;8425025;28;20270;-79
2022/09/29 21:42:36;;;;;;;;;;;9.90;99.90;;;;;;8424140;28;19924;-79
2022/09/29 21:46:38;;;;;;;;;;;9.90;99.90;;;;;;8430242;28;19934;-79
2022/09/29 21:50:41;;;;;;;;;;;9.80;99.90;;;;;;8437779;28;19959;-79
2022/09/29 21:54:43;;;;;;;;;;;9.80;99.90;;;;;;8411411;28;19930;-79
2022/09/29 21:58:46;;;;;;;4.57;2.40;;;9.80;99.90;;;;;;8427553;28;19923;-79
2022/09/29 22:02:47;;;;;;;;;;;9.70;99.90;;;;;;8429804;28;20066;-79
2022/09/29 22:06:49;;;;;;;;;;;9.60;99.90;;;;;;8427478;28;19920;-79
2022/09/29 22:10:52;;;;;;;;;;;9.50;99.90;;;;;;8424359;28;19942;-79
2022/09/29 22:14:54;;;;;;;;;;;9.50;99.90;;;;;;8423973;28;19924;-79
2022/09/29 22:18:56;;;;;;;;;;;9.50;99.90;;;;;;8422940;28;19923;-78
2022/09/29 22:23:18;;;;;;;4.23;2.07;;;9.40;99.90;;;;;;8427896;28;19928;-78
2022/09/29 22:27:20;;;;;;;;;;;9.40;99.90;;;;;;8417645;28;20052;-79
2022/09/29 22:31:21;;;;;;;;;;;9.30;99.90;;;;;;8438393;28;19920;-78
2022/09/29 22:35:23;;;;;;;;;;;9.30;99.90;;;;;;8425578;28;19939;-78
2022/09/29 22:39:25;;;;;;;;;;;9.20;99.90;;;;;;8432702;27;19923;-79
2022/09/29 22:43:27;;;;;;;;;;;9.20;99.90;;;;;;8415684;28;19928;-79
2022/09/29 22:47:28;;;;;;;;;;;9.20;99.90;;;;;;8429912;28;19926;-79
2022/09/29 22:51:31;;;;;;;;;;;9.20;99.90;;;;;;8420166;28;20370;-79
2022/09/29 22:55:32;;;;;;;;;;;9.10;99.90;;;;;;8428298;28;19930;-78
2022/09/29 22:59:34;;;;;;;;;;;9.10;99.90;;;;;;8425167;28;19924;-79
2022/09/29 23:03:35;;;;;;;;;;;9.10;99.90;;;;;;8424017;28;19926;-78
2022/09/29 23:07:37;;;;;;;;;;;9.10;99.90;;;;;;8431098;28;19989;-78
2022/09/29 23:11:40;;;;;;;;;;;9.10;99.90;;;;;;8427882;28;21482;-79
2022/09/29 23:15:42;;;;;;;;;;;9.00;99.90;;;;;;8432072;28;19967;-78
2022/09/29 23:19:44;;;;;;;;;;;9.00;99.90;;;;;;8419540;28;19928;-79